Private Wetterstation Sandau
Wetterdaten: Montag, 16.04.2012
Datum Zeit Temp. A. Feuchte A. Luftdruck Regen Wind Richtung Richtung Taupunkt Windchill
16.04.2012 00:01 7,2 C 65 % 1013,8 hPa 0,0 l/m 9,4 km/h (2 Bft) NO 45 1,1 C 5,4 C
16.04.2012 00:06 7,0 C 65 % 1013,8 hPa 0,0 l/m 9,4 km/h (2 Bft) NO 45 0,9 C 5,2 C
16.04.2012 00:11 6,9 C 66 % 1013,9 hPa 0,0 l/m 5,8 km/h (2 Bft) N 360 1,0 C 6,0 C
16.04.2012 00:16 6,8 C 66 % 1013,9 hPa 0,0 l/m 8,3 km/h (2 Bft) N 360 0,9 C 5,2 C
16.04.2012 00:21 6,8 C 67 % 1014,1 hPa 0,0 l/m 5,4 km/h (1 Bft) N 360 1,1 C 6,0 C
16.04.2012 00:26 6,6 C 67 % 1013,9 hPa 0,0 l/m 6,5 km/h (2 Bft) N-NO 22 0,9 C 5,4 C
16.04.2012 00:31 6,5 C 67 % 1014,0 hPa 0,0 l/m 4,3 km/h (1 Bft) N-NW 337 0,8 C 6,5 C
16.04.2012 00:36 6,4 C 68 % 1014,0 hPa 0,0 l/m 5,4 km/h (1 Bft) N-NO 22 0,9 C 5,5 C
16.04.2012 00:41 6,3 C 68 % 1014,1 hPa 0,0 l/m 4,7 km/h (1 Bft) NO 45 0,8 C 5,7 C
16.04.2012 00:46 6,3 C 68 % 1014,3 hPa 0,0 l/m 4,7 km/h (1 Bft) N-NO 22 0,8 C 5,7 C
16.04.2012 00:51 6,2 C 68 % 1014,3 hPa 0,0 l/m 8,3 km/h (2 Bft) N-NO 22 0,7 C 4,5 C
16.04.2012 00:56 6,1 C 69 % 1014,1 hPa 0,0 l/m 7,9 km/h (2 Bft) NO 45 0,8 C 4,5 C
16.04.2012 01:01 6,1 C 69 % 1014,2 hPa 0,0 l/m 6,1 km/h (2 Bft) N-NO 22 0,8 C 5,0 C
16.04.2012 01:06 5,9 C 69 % 1014,1 hPa 0,0 l/m 4,7 km/h (1 Bft) N-NO 22 0,7 C 5,2 C
16.04.2012 01:11 5,9 C 69 % 1014,1 hPa 0,0 l/m 4,0 km/h (1 Bft) N-NO 22 0,7 C 5,9 C
16.04.2012 01:16 5,8 C 69 % 1014,2 hPa 0,0 l/m 5,4 km/h (1 Bft) NO 45 0,6 C 4,8 C
16.04.2012 01:21 5,8 C 69 % 1014,2 hPa 0,0 l/m 3,2 km/h (1 Bft) N-NO 22 0,6 C 5,8 C
16.04.2012 01:26 5,6 C 69 % 1014,0 hPa 0,0 l/m 4,0 km/h (1 Bft) N-NO 22 0,4 C 5,6 C
16.04.2012 01:31 5,6 C 70 % 1014,1 hPa 0,0 l/m 7,2 km/h (2 Bft) N-NO 22 0,6 C 4,1 C
16.04.2012 01:36 5,5 C 70 % 1014,2 hPa 0,0 l/m 2,2 km/h (1 Bft) N 360 0,5 C 5,5 C
16.04.2012 01:41 5,4 C 70 % 1014,1 hPa 0,0 l/m 2,9 km/h (1 Bft) N 360 0,4 C 5,4 C
16.04.2012 01:46 5,3 C 70 % 1014,2 hPa 0,0 l/m 2,5 km/h (1 Bft) NO 45 0,3 C 5,3 C
16.04.2012 01:51 5,3 C 70 % 1014,2 hPa 0,0 l/m 3,2 km/h (1 Bft) NO 45 0,3 C 5,3 C
16.04.2012 01:56 5,2 C 70 % 1014,3 hPa 0,0 l/m 2,5 km/h (1 Bft) NO 45 0,2 C 5,2 C
16.04.2012 02:01 5,1 C 71 % 1014,3 hPa 0,0 l/m 6,5 km/h (2 Bft) N-NO 22 0,3 C 3,7 C
16.04.2012 02:06 5,1 C 71 % 1014,4 hPa 0,0 l/m 5,8 km/h (2 Bft) NO 45 0,3 C 3,9 C
16.04.2012 02:11 5,0 C 71 % 1014,2 hPa 0,0 l/m 4,7 km/h (1 Bft) NO 45 0,2 C 4,2 C
16.04.2012 02:16 4,9 C 71 % 1014,2 hPa 0,0 l/m 4,0 km/h (1 Bft) N-NW 337 0,1 C 4,9 C
16.04.2012 02:21 4,9 C 71 % 1014,2 hPa 0,0 l/m 5,0 km/h (1 Bft) N-NW 337 0,1 C 4,0 C
16.04.2012 02:26 4,9 C 72 % 1014,3 hPa 0,0 l/m 4,0 km/h (1 Bft) NO 45 0,3 C 4,9 C
16.04.2012 02:31 4,8 C 72 % 1014,3 hPa 0,0 l/m 6,5 km/h (2 Bft) NO 45 0,2 C 3,3 C
16.04.2012 02:36 4,8 C 73 % 1014,2 hPa 0,0 l/m 7,6 km/h (2 Bft) N-NO 22 0,4 C 3,0 C
16.04.2012 02:41 4,7 C 72 % 1014,2 hPa 0,0 l/m 8,3 km/h (2 Bft) N-NO 22 0,1 C 2,7 C
16.04.2012 02:46 4,6 C 73 % 1014,2 hPa 0,0 l/m 4,7 km/h (1 Bft) N 360 0,2 C 3,8 C
16.04.2012 02:51 4,5 C 73 % 1014,2 hPa 0,0 l/m 5,8 km/h (2 Bft) NO 45 0,1 C 3,2 C
16.04.2012 02:56 4,5 C 74 % 1014,3 hPa 0,0 l/m 5,0 km/h (1 Bft) N-NW 337 0,3 C 3,5 C
16.04.2012 03:01 4,5 C 74 % 1014,3 hPa 0,0 l/m 4,7 km/h (1 Bft) N-NO 22 0,3 C 3,6 C
16.04.2012 03:06 4,4 C 75 % 1014,3 hPa 0,0 l/m 2,9 km/h (1 Bft) N 360 0,4 C 4,4 C
16.04.2012 03:11 4,4 C 76 % 1014,4 hPa 0,0 l/m 4,7 km/h (1 Bft) N-NW 337 0,5 C 3,5 C
16.04.2012 03:16 4,4 C 76 % 1014,5 hPa 0,0 l/m 7,2 km/h (2 Bft) NO 45 0,5 C 2,7 C
16.04.2012 03:21 4,4 C 77 % 1014,5 hPa 0,0 l/m 4,0 km/h (1 Bft) W 270 0,7 C 4,4 C
16.04.2012 03:26 4,4 C 77 % 1014,4 hPa 0,0 l/m 7,2 km/h (2 Bft) N-NO 22 0,7 C 2,7 C
16.04.2012 03:31 4,4 C 78 % 1014,5 hPa 0,0 l/m 4,7 km/h (1 Bft) NO 45 0,9 C 3,5 C
16.04.2012 03:36 4,3 C 78 % 1014,3 hPa 0,0 l/m 6,1 km/h (2 Bft) N-NO 22 0,8 C 2,9 C
16.04.2012 03:41 4,3 C 78 % 1014,4 hPa 0,0 l/m 6,1 km/h (2 Bft) N-NO 22 0,8 C 2,9 C
16.04.2012 03:46 4,3 C 79 % 1014,5 hPa 0,0 l/m 6,1 km/h (2 Bft) NO 45 1,0 C 2,9 C
16.04.2012 03:51 4,3 C 79 % 1014,6 hPa 0,0 l/m 4,0 km/h (1 Bft) N-NO 22 1,0 C 4,3 C
16.04.2012 03:56 4,2 C 79 % 1014,6 hPa 0,0 l/m 5,8 km/h (2 Bft) N-NO 22 0,9 C 2,9 C
16.04.2012 04:01 4,2 C 79 % 1014,5 hPa 0,0 l/m 6,8 km/h (2 Bft) NO 45 0,9 C 2,5 C
16.04.2012 04:06 4,1 C 80 % 1014,4 hPa 0,0 l/m 6,1 km/h (2 Bft) NO 45 1,0 C 2,7 C
16.04.2012 04:11 4,1 C 80 % 1014,5 hPa 0,0 l/m 4,3 km/h (1 Bft) NO 45 1,0 C 4,1 C
16.04.2012 04:16 4,1 C 80 % 1014,6 hPa 0,0 l/m 8,3 km/h (2 Bft) N-NO 22 1,0 C 2,0 C
16.04.2012 04:21 4,1 C 80 % 1014,7 hPa 0,0 l/m 6,5 km/h (2 Bft) N 360 1,0 C 2,5 C
16.04.2012 04:26 4,1 C 81 % 1014,7 hPa 0,0 l/m 6,5 km/h (2 Bft) NO 45 1,1 C 2,5 C
16.04.2012 04:31 4,1 C 81 % 1014,7 hPa 0,0 l/m 8,6 km/h (2 Bft) N-NO 22 1,1 C 1,9 C
16.04.2012 04:36 4,1 C 82 % 1014,7 hPa 0,0 l/m 8,6 km/h (2 Bft) N-NO 22 1,3 C 1,9 C
16.04.2012 04:41 4,1 C 82 % 1014,6 hPa 0,0 l/m 8,3 km/h (2 Bft) O-NO 67 1,3 C 2,0 C
16.04.2012 04:46 4,1 C 82 % 1014,6 hPa 0,0 l/m 5,8 km/h (2 Bft) NO 45 1,3 C 2,8 C
16.04.2012 04:51 4,1 C 82 % 1014,6 hPa 0,0 l/m 5,4 km/h (1 Bft) N-NO 22 1,3 C 2,9 C
16.04.2012 04:56 4,2 C 83 % 1014,6 hPa 0,0 l/m 4,7 km/h (1 Bft) N 360 1,6 C 3,3 C
16.04.2012 05:01 4,2 C 83 % 1014,6 hPa 0,0 l/m 7,9 km/h (2 Bft) N 360 1,6 C 2,2 C
16.04.2012 05:06 4,3 C 83 % 1014,7 hPa 0,0 l/m 12,2 km/h (2 Bft) NO 45 1,7 C 1,4 C
16.04.2012 05:11 4,4 C 83 % 1014,7 hPa 0,0 l/m 13,7 km/h (3 Bft) NO 45 1,8 C 1,2 C
16.04.2012 05:16 4,4 C 83 % 1014,7 hPa 0,0 l/m 12,6 km/h (3 Bft) N-NO 22 1,8 C 1,4 C
16.04.2012 05:21 4,5 C 82 % 1014,6 hPa 0,0 l/m 12,2 km/h (2 Bft) N-NW 337 1,7 C 1,6 C
16.04.2012 05:26 4,6 C 82 % 1014,8 hPa 0,0 l/m 6,5 km/h (2 Bft) NO 45 1,8 C 3,1 C
16.04.2012 05:31 4,6 C 81 % 1014,8 hPa 0,0 l/m 7,9 km/h (2 Bft) N-NO 22 1,6 C 2,7 C
16.04.2012 05:36 4,6 C 81 % 1014,7 hPa 0,0 l/m 5,8 km/h (2 Bft) N-NO 22 1,6 C 3,3 C
16.04.2012 05:41 4,6 C 81 % 1014,7 hPa 0,0 l/m 4,0 km/h (1 Bft) O-NO 67 1,6 C 4,6 C
16.04.2012 05:46 4,5 C 80 % 1014,9 hPa 0,0 l/m 14,8 km/h (3 Bft) NO 45 1,4 C 1,2 C
16.04.2012 05:51 4,5 C 80 % 1015,0 hPa 0,0 l/m 18,4 km/h (3 Bft) N-NO 22 1,4 C 0,6 C
16.04.2012 05:56 4,5 C 80 % 1015,0 hPa 0,0 l/m 7,6 km/h (2 Bft) N 360 1,4 C 2,7 C
16.04.2012 06:01 4,4 C 80 % 1014,9 hPa 0,0 l/m 4,7 km/h (1 Bft) N-NW 337 1,3 C 3,5 C
16.04.2012 06:06 4,3 C 80 % 1014,9 hPa 0,0 l/m 7,2 km/h (2 Bft) NO 45 1,2 C 2,5 C
16.04.2012 06:11 4,3 C 80 % 1015,0 hPa 0,0 l/m 8,6 km/h (2 Bft) N-NO 22 1,2 C 2,2 C
16.04.2012 06:16 4,3 C 80 % 1015,0 hPa 0,0 l/m 4,0 km/h (1 Bft) O-NO 67 1,2 C 4,3 C
16.04.2012 06:21 4,3 C 80 % 1015,0 hPa 0,0 l/m 8,3 km/h (2 Bft) N 360 1,2 C 2,2 C
16.04.2012 06:26 4,3 C 80 % 1015,2 hPa 0,0 l/m 2,2 km/h (1 Bft) NO 45 1,2 C 4,3 C
16.04.2012 06:31 4,2 C 80 % 1015,3 hPa 0,0 l/m 10,1 km/h (2 Bft) N 360 1,1 C 1,7 C
16.04.2012 06:36 4,2 C 80 % 1015,5 hPa 0,0 l/m 5,0 km/h (1 Bft) N-NO 22 1,1 C 3,2 C
16.04.2012 06:41 4,1 C 80 % 1015,6 hPa 0,0 l/m 4,0 km/h (1 Bft) N-NO 22 1,0 C 4,1 C
16.04.2012 06:46 4,1 C 80 % 1015,6 hPa 0,0 l/m 3,6 km/h (1 Bft) N-NO 22 1,0 C 4,1 C
16.04.2012 06:51 4,2 C 80 % 1015,6 hPa 0,0 l/m 4,0 km/h (1 Bft) O-NO 67 1,1 C 4,2 C
16.04.2012 06:56 4,2 C 80 % 1015,6 hPa 0,0 l/m 2,9 km/h (1 Bft) NW 315 1,1 C 4,2 C
16.04.2012 07:01 4,2 C 80 % 1015,6 hPa 0,0 l/m 4,3 km/h (1 Bft) NO 45 1,1 C 4,2 C
16.04.2012 07:06 4,3 C 80 % 1015,6 hPa 0,0 l/m 9,0 km/h (2 Bft) NO 45 1,2 C 2,1 C
16.04.2012 07:11 4,3 C 80 % 1015,8 hPa 0,0 l/m 5,0 km/h (1 Bft) N 360 1,2 C 3,3 C
16.04.2012 07:16 4,3 C 80 % 1015,9 hPa 0,0 l/m 4,3 km/h (1 Bft) NO 45 1,2 C 4,3 C
16.04.2012 07:21 4,4 C 80 % 1015,9 hPa 0,0 l/m 2,5 km/h (1 Bft) NO 45 1,3 C 4,4 C
16.04.2012 07:26 4,4 C 80 % 1015,9 hPa 0,0 l/m 10,4 km/h (2 Bft) N-NW 337 1,3 C 1,9 C
16.04.2012 07:31 4,4 C 79 % 1016,0 hPa 0,0 l/m 12,2 km/h (2 Bft) NO 45 1,1 C 1,5 C
16.04.2012 07:36 4,5 C 78 % 1015,9 hPa 0,0 l/m 9,7 km/h (2 Bft) NO 45 1,0 C 2,1 C
16.04.2012 07:41 4,6 C 78 % 1016,0 hPa 0,0 l/m 8,3 km/h (2 Bft) N-NO 22 1,1 C 2,6 C
16.04.2012 07:46 4,8 C 77 % 1016,1 hPa 0,0 l/m 7,6 km/h (2 Bft) N-NW 337 1,1 C 3,0 C
16.04.2012 07:51 4,9 C 77 % 1016,1 hPa 0,0 l/m 6,5 km/h (2 Bft) N 360 1,2 C 3,4 C
16.04.2012 07:56 5,1 C 77 % 1016,2 hPa 0,0 l/m 7,9 km/h (2 Bft) NO 45 1,4 C 3,3 C
16.04.2012 08:01 5,1 C 76 % 1016,0 hPa 0,0 l/m 16,9 km/h (3 Bft) N-NO 22 1,2 C 1,6 C
16.04.2012 08:06 5,2 C 76 % 1016,3 hPa 0,0 l/m 12,6 km/h (3 Bft) NO 45 1,3 C 2,4 C
16.04.2012 08:11 5,1 C 76 % 1016,2 hPa 0,0 l/m 13,7 km/h (3 Bft) NO 45 1,2 C 2,1 C
16.04.2012 08:16 5,0 C 76 % 1016,4 hPa 0,0 l/m 8,3 km/h (2 Bft) N-NO 22 1,1 C 3,1 C
16.04.2012 08:21 5,1 C 76 % 1016,4 hPa 0,0 l/m 11,5 km/h (2 Bft) NO 45 1,2 C 2,5 C
16.04.2012 08:26 5,1 C 75 % 1016,3 hPa 0,0 l/m 16,2 km/h (3 Bft) O-NO 67 1,0 C 1,7 C
16.04.2012 08:31 5,1 C 74 % 1016,4 hPa 0,0 l/m 20,9 km/h (4 Bft) NO 45 0,9 C 1,1 C
16.04.2012 08:36 5,2 C 73 % 1016,3 hPa 0,0 l/m 23,0 km/h (4 Bft) NO 45 0,8 C 1,0 C
16.04.2012 08:41 5,3 C 71 % 1016,5 hPa 0,0 l/m 8,6 km/h (2 Bft) NO 45 0,5 C 3,3 C
16.04.2012 08:46 5,3 C 71 % 1016,5 hPa 0,0 l/m 9,0 km/h (2 Bft) NO 45 0,5 C 3,2 C
16.04.2012 08:51 5,5 C 71 % 1016,4 hPa 0,0 l/m 11,5 km/h (2 Bft) NO 45 0,7 C 3,0 C
16.04.2012 08:56 5,6 C 70 % 1016,6 hPa 0,0 l/m 16,6 km/h (3 Bft) N 360 0,6 C 2,3 C
16.04.2012 09:01 5,6 C 68 % 1016,6 hPa 0,0 l/m 14,8 km/h (3 Bft) N-NO 22 0,2 C 2,5 C
16.04.2012 09:06 5,8 C 69 % 1016,6 hPa 0,0 l/m 7,6 km/h (2 Bft) NO 45 0,6 C 4,2 C
16.04.2012 09:11 5,8 C 69 % 1016,7 hPa 0,0 l/m 14,8 km/h (3 Bft) NO 45 0,6 C 2,8 C
16.04.2012 09:16 5,9 C 68 % 1016,7 hPa 0,0 l/m 20,5 km/h (4 Bft) NO 45 0,5 C 2,1 C
16.04.2012 09:21 5,9 C 67 % 1016,4 hPa 0,0 l/m 6,1 km/h (2 Bft) N-NW 337 0,3 C 4,7 C
16.04.2012 09:26 6,0 C 66 % 1016,8 hPa 0,0 l/m 16,6 km/h (3 Bft) NO 45 0,1 C 2,8 C
16.04.2012 09:31 5,9 C 66 % 1016,9 hPa 0,0 l/m 12,6 km/h (3 Bft) NW 315 0,0 C 3,2 C
16.04.2012 09:36 5,9 C 66 % 1016,8 hPa 0,0 l/m 13,0 km/h (3 Bft) N 360 0,0 C 3,2 C
16.04.2012 09:41 5,9 C 66 % 1016,8 hPa 0,0 l/m 6,1 km/h (2 Bft) N 360 0,0 C 4,7 C
16.04.2012 09:46 5,9 C 66 % 1016,8 hPa 0,0 l/m 12,6 km/h (3 Bft) NO 45 0,0 C 3,2 C
16.04.2012 09:51 6,1 C 63 % 1017,0 hPa 0,0 l/m 18,7 km/h (3 Bft) N-NO 22 -0,4 C 2,6 C
16.04.2012 09:56 6,2 C 63 % 1016,8 hPa 0,0 l/m 5,8 km/h (2 Bft) NO 45 -0,3 C 5,2 C
16.04.2012 10:01 6,4 C 62 % 1017,0 hPa 0,0 l/m 20,5 km/h (4 Bft) N-NO 22 -0,3 C 2,8 C
16.04.2012 10:06 6,5 C 59 % 1017,0 hPa 0,0 l/m 9,7 km/h (2 Bft) NO 45 -0,9 C 4,5 C
16.04.2012 10:11 6,6 C 60 % 1017,1 hPa 0,0 l/m 8,6 km/h (2 Bft) N 360 -0,6 C 4,9 C
16.04.2012 10:16 6,7 C 61 % 1017,1 hPa 0,0 l/m 15,1 km/h (3 Bft) N-NO 22 -0,3 C 3,8 C
16.04.2012 10:21 7,0 C 61 % 1017,1 hPa 0,0 l/m 16,9 km/h (3 Bft) NO 45 0,0 C 4,0 C
16.04.2012 10:26 7,2 C 60 % 1017,3 hPa 0,0 l/m 16,6 km/h (3 Bft) NO 45 -0,0 C 4,2 C
16.04.2012 10:31 6,9 C 59 % 1017,4 hPa 0,0 l/m 15,5 km/h (3 Bft) N 360 -0,5 C 4,0 C
16.04.2012 10:36 7,1 C 58 % 1017,4 hPa 0,0 l/m 9,7 km/h (2 Bft) NW 315 -0,6 C 5,2 C
16.04.2012 10:41 7,2 C 59 % 1017,1 hPa 0,0 l/m 14,8 km/h (3 Bft) NO 45 -0,3 C 4,5 C
16.04.2012 10:46 7,3 C 60 % 1017,1 hPa 0,0 l/m 7,9 km/h (2 Bft) NO 45 0,1 C 5,9 C
16.04.2012 10:51 7,5 C 61 % 1017,2 hPa 0,0 l/m 7,6 km/h (2 Bft) NO 45 0,5 C 6,2 C
16.04.2012 10:56 7,8 C 61 % 1017,3 hPa 0,0 l/m 6,5 km/h (2 Bft) N-NO 22 0,8 C 6,8 C
16.04.2012 11:01 7,9 C 60 % 1017,3 hPa 0,0 l/m 8,3 km/h (2 Bft) N 360 0,6 C 6,5 C
16.04.2012 11:06 7,8 C 60 % 1017,4 hPa 0,0 l/m 6,5 km/h (2 Bft) N-NO 22 0,5 C 6,8 C
16.04.2012 11:11 7,6 C 60 % 1017,2 hPa 0,0 l/m 9,7 km/h (2 Bft) N-NW 337 0,3 C 5,8 C
16.04.2012 11:16 7,6 C 59 % 1017,3 hPa 0,0 l/m 10,4 km/h (2 Bft) N 360 0,1 C 5,7 C
16.04.2012 11:21 7,8 C 57 % 1017,3 hPa 0,0 l/m 16,6 km/h (3 Bft) N-NW 337 -0,2 C 5,0 C
16.04.2012 11:26 7,9 C 55 % 1017,3 hPa 0,0 l/m 15,5 km/h (3 Bft) NO 45 -0,6 C 5,3 C
16.04.2012 11:31 8,1 C 56 % 1017,1 hPa 0,0 l/m 10,4 km/h (2 Bft) NO 45 -0,1 C 6,3 C
16.04.2012 11:36 8,1 C 54 % 1017,0 hPa 0,0 l/m 9,7 km/h (2 Bft) NO 45 -0,6 C 6,4 C
16.04.2012 11:41 8,1 C 53 % 1017,0 hPa 0,0 l/m 5,8 km/h (2 Bft) NO 45 -0,9 C 7,3 C
16.04.2012 11:46 8,2 C 54 % 1016,9 hPa 0,0 l/m 13,0 km/h (3 Bft) NO 45 -0,5 C 6,0 C
16.04.2012 11:51 8,4 C 54 % 1017,0 hPa 0,0 l/m 24,5 km/h (4 Bft) N-NW 337 -0,4 C 4,9 C
16.04.2012 11:56 8,4 C 54 % 1016,9 hPa 0,0 l/m 7,9 km/h (2 Bft) W-SW 247 -0,4 C 7,2 C
16.04.2012 12:01 8,7 C 55 % 1016,8 hPa 0,0 l/m 6,8 km/h (2 Bft) N-NO 22 0,2 C 7,8 C
16.04.2012 12:06 8,6 C 52 % 1016,9 hPa 0,0 l/m 16,9 km/h (3 Bft) NW 315 -0,7 C 6,0 C
16.04.2012 12:11 8,8 C 51 % 1016,9 hPa 0,0 l/m 19,1 km/h (3 Bft) NO 45 -0,8 C 6,0 C
16.04.2012 12:16 8,9 C 50 % 1016,8 hPa 0,0 l/m 6,5 km/h (2 Bft) N 360 -0,9 C 8,1 C
16.04.2012 12:21 9,1 C 51 % 1016,8 hPa 0,0 l/m 4,3 km/h (1 Bft) O 90 -0,5 C 9,1 C
16.04.2012 12:26 9,2 C 50 % 1016,8 hPa 0,0 l/m 7,6 km/h (2 Bft) N-NO 22 -0,7 C 8,2 C
16.04.2012 12:31 9,3 C 49 % 1016,8 hPa 0,0 l/m 9,7 km/h (2 Bft) N-NO 22 -0,9 C 7,8 C
16.04.2012 12:36 9,4 C 49 % 1016,7 hPa 0,0 l/m 10,8 km/h (2 Bft) NW 315 -0,8 C 7,8 C
16.04.2012 12:41 9,3 C 49 % 1016,8 hPa 0,0 l/m 10,1 km/h (2 Bft) NO 45 -0,9 C 7,8 C
16.04.2012 12:46 9,2 C 48 % 1016,8 hPa 0,0 l/m 9,7 km/h (2 Bft) NW 315 -1,2 C 7,7 C
16.04.2012 12:51 9,3 C 49 % 1016,7 hPa 0,0 l/m 18,7 km/h (3 Bft) N-NW 337 -0,9 C 6,6 C
16.04.2012 12:56 9,4 C 47 % 1016,6 hPa 0,0 l/m 14,4 km/h (3 Bft) W-NW 292 -1,3 C 7,3 C
16.04.2012 13:01 9,6 C 46 % 1016,6 hPa 0,0 l/m 15,5 km/h (3 Bft) N-NO 22 -1,4 C 7,4 C
16.04.2012 13:06 9,6 C 46 % 1016,8 hPa 0,0 l/m 12,6 km/h (3 Bft) NO 45 -1,4 C 7,7 C
16.04.2012 13:11 9,6 C 48 % 1016,6 hPa 0,0 l/m 19,1 km/h (3 Bft) W-NW 292 -0,9 C 7,0 C
16.04.2012 13:16 9,8 C 46 % 1016,7 hPa 0,0 l/m 18,0 km/h (3 Bft) N-NO 22 -1,3 C 7,3 C
16.04.2012 13:21 9,7 C 46 % 1016,5 hPa 0,0 l/m 15,5 km/h (3 Bft) N-NO 22 -1,3 C 7,5 C
16.04.2012 13:26 9,6 C 47 % 1016,7 hPa 0,0 l/m 23,0 km/h (4 Bft) N 360 -1,1 C 6,6 C
16.04.2012 13:31 9,6 C 44 % 1016,7 hPa 0,0 l/m 12,2 km/h (2 Bft) N 360 -2,0 C 7,8 C
16.04.2012 13:36 9,8 C 43 % 1016,6 hPa 0,0 l/m 8,3 km/h (2 Bft) N-NO 22 -2,2 C 8,7 C
16.04.2012 13:41 9,8 C 44 % 1016,7 hPa 0,0 l/m 4,7 km/h (1 Bft) N-NO 22 -1,9 C 9,6 C
16.04.2012 13:46 9,9 C 43 % 1016,7 hPa 0,0 l/m 5,8 km/h (2 Bft) O 90 -2,1 C 9,4 C
16.04.2012 13:51 10,1 C 44 % 1016,6 hPa 0,0 l/m 6,5 km/h (2 Bft) O-NO 67 -1,6 C 10,1 C
16.04.2012 13:56 10,3 C 43 % 1016,6 hPa 0,0 l/m 4,0 km/h (1 Bft) N-NO 22 -1,7 C 10,3 C
16.04.2012 14:01 10,5 C 42 % 1016,5 hPa 0,0 l/m 7,2 km/h (2 Bft) NO 45 -1,9 C 10,5 C
16.04.2012 14:06 10,5 C 43 % 1016,7 hPa 0,0 l/m 10,1 km/h (2 Bft) N-NW 337 -1,5 C 10,5 C
16.04.2012 14:11 10,3 C 42 % 1016,7 hPa 0,0 l/m 4,7 km/h (1 Bft) O 90 -2,0 C 10,3 C
16.04.2012 14:16 10,2 C 42 % 1016,6 hPa 0,0 l/m 13,0 km/h (3 Bft) NW 315 -2,1 C 10,2 C
16.04.2012 14:21 10,5 C 41 % 1016,8 hPa 0,0 l/m 12,6 km/h (3 Bft) W 270 -2,2 C 10,5 C
16.04.2012 14:26 10,6 C 40 % 1016,8 hPa 0,0 l/m 14,4 km/h (3 Bft) N 360 -2,4 C 10,6 C
16.04.2012 14:31 10,8 C 40 % 1016,6 hPa 0,0 l/m 7,6 km/h (2 Bft) N-NO 22 -2,2 C 10,8 C
16.04.2012 14:36 10,9 C 40 % 1016,6 hPa 0,0 l/m 9,0 km/h (2 Bft) W-NW 292 -2,2 C 10,9 C
16.04.2012 14:41 10,6 C 37 % 1016,7 hPa 0,0 l/m 3,6 km/h (1 Bft) W-NW 292 -3,5 C 10,6 C
16.04.2012 14:46 10,7 C 40 % 1016,7 hPa 0,0 l/m 8,6 km/h (2 Bft) N-NO 22 -2,3 C 10,7 C
16.04.2012 14:51 10,9 C 40 % 1016,8 hPa 0,0 l/m 7,2 km/h (2 Bft) N-NW 337 -2,2 C 10,9 C
16.04.2012 14:56 10,9 C 39 % 1016,7 hPa 0,0 l/m 14,8 km/h (3 Bft) N-NO 22 -2,5 C 10,9 C
16.04.2012 15:01 10,4 C 38 % 1016,7 hPa 0,0 l/m 7,6 km/h (2 Bft) W-NW 292 -3,3 C 10,4 C
16.04.2012 15:06 10,5 C 40 % 1016,7 hPa 0,0 l/m 8,3 km/h (2 Bft) W-SW 247 -2,5 C 10,5 C
16.04.2012 15:11 11,2 C 40 % 1016,7 hPa 0,0 l/m 6,1 km/h (2 Bft) O-SO 112 -1,9 C 11,2 C
16.04.2012 15:16 11,4 C 38 % 1016,8 hPa 0,0 l/m 15,5 km/h (3 Bft) N-NO 22 -2,4 C 11,4 C
16.04.2012 15:21 10,8 C 35 % 1016,8 hPa 0,0 l/m 13,7 km/h (3 Bft) NW 315 -4,0 C 10,8 C
16.04.2012 15:26 10,5 C 37 % 1016,7 hPa 0,0 l/m 7,2 km/h (2 Bft) W 270 -3,6 C 10,5 C
16.04.2012 15:31 10,9 C 36 % 1016,7 hPa 0,0 l/m 5,8 km/h (2 Bft) W 270 -3,6 C 10,9 C
16.04.2012 15:36 11,3 C 37 % 1016,6 hPa 0,0 l/m 7,6 km/h (2 Bft) W-SW 247 -2,8 C 11,3 C
16.04.2012 15:41 11,8 C 37 % 1016,6 hPa 0,0 l/m 7,2 km/h (2 Bft) N-NO 22 -2,4 C 11,8 C
16.04.2012 15:46 11,4 C 35 % 1016,7 hPa 0,0 l/m 21,6 km/h (4 Bft) N-NO 22 -3,5 C 11,4 C
16.04.2012 15:51 10,7 C 35 % 1016,8 hPa 0,0 l/m 16,6 km/h (3 Bft) N 360 -4,1 C 10,7 C
16.04.2012 15:56 10,5 C 35 % 1016,7 hPa 0,0 l/m 6,8 km/h (2 Bft) W-NW 292 -4,3 C 10,5 C
16.04.2012 16:01 10,9 C 35 % 1016,7 hPa 0,0 l/m 8,6 km/h (2 Bft) N-NW 337 -3,9 C 10,9 C
16.04.2012 16:06 10,9 C 35 % 1016,7 hPa 0,0 l/m 19,1 km/h (3 Bft) W-NW 292 -3,9 C 10,9 C
16.04.2012 16:11 11,1 C 38 % 1016,5 hPa 0,0 l/m 10,8 km/h (2 Bft) W 270 -2,7 C 11,1 C
16.04.2012 16:16 10,9 C 36 % 1016,5 hPa 0,0 l/m 4,3 km/h (1 Bft) N-NW 337 -3,6 C 10,9 C
16.04.2012 16:21 10,8 C 35 % 1016,5 hPa 0,0 l/m 11,2 km/h (2 Bft) W-NW 292 -4,0 C 10,8 C
16.04.2012 16:26 11,2 C 36 % 1016,5 hPa 0,0 l/m 4,3 km/h (1 Bft) NW 315 -3,3 C 11,2 C
16.04.2012 16:31 11,6 C 35 % 1016,6 hPa 0,0 l/m 8,3 km/h (2 Bft) N 360 -3,3 C 11,6 C
16.04.2012 16:36 11,6 C 34 % 1016,5 hPa 0,0 l/m 8,3 km/h (2 Bft) NW 315 -3,7 C 11,6 C
16.04.2012 16:41 11,4 C 34 % 1016,4 hPa 0,0 l/m 9,0 km/h (2 Bft) N-NW 337 -3,9 C 11,4 C
16.04.2012 16:46 11,6 C 35 % 1016,5 hPa 0,0 l/m 8,3 km/h (2 Bft) O-NO 67 -3,3 C 11,6 C
16.04.2012 16:51 11,9 C 34 % 1016,4 hPa 0,0 l/m 10,1 km/h (2 Bft) NO 45 -3,4 C 11,9 C
16.04.2012 16:56 11,8 C 34 % 1016,5 hPa 0,0 l/m 7,2 km/h (2 Bft) W-NW 292 -3,5 C 11,8 C
16.04.2012 17:01 11,9 C 35 % 1016,4 hPa 0,0 l/m 10,8 km/h (2 Bft) W 270 -3,1 C 11,9 C
16.04.2012 17:06 12,1 C 37 % 1016,4 hPa 0,0 l/m 13,0 km/h (3 Bft) NW 315 -2,1 C 12,1 C
16.04.2012 17:11 12,2 C 35 % 1016,5 hPa 0,0 l/m 5,8 km/h (2 Bft) NO 45 -2,8 C 12,2 C
16.04.2012 17:16 11,9 C 37 % 1016,4 hPa 0,0 l/m 13,0 km/h (3 Bft) NW 315 -2,3 C 11,9 C
16.04.2012 17:21 11,9 C 36 % 1016,4 hPa 0,0 l/m 8,3 km/h (2 Bft) W 270 -2,7 C 11,9 C
16.04.2012 17:26 11,8 C 37 % 1016,5 hPa 0,0 l/m 15,1 km/h (3 Bft) W-NW 292 -2,4 C 11,8 C
16.04.2012 17:31 11,8 C 38 % 1016,5 hPa 0,0 l/m 11,2 km/h (2 Bft) NW 315 -2,0 C 11,8 C
16.04.2012 17:36 11,3 C 41 % 1016,5 hPa 0,0 l/m 4,3 km/h (1 Bft) N-NW 337 -1,5 C 11,3 C
16.04.2012 17:41 10,3 C 43 % 1016,8 hPa 0,0 l/m 6,8 km/h (2 Bft) N 360 -1,7 C 10,3 C
16.04.2012 17:46 9,8 C 45 % 1016,8 hPa 0,0 l/m 16,6 km/h (3 Bft) N-NW 337 -1,6 C 7,5 C
16.04.2012 17:51 9,5 C 46 % 1016,8 hPa 0,0 l/m 9,7 km/h (2 Bft) N-NW 337 -1,5 C 8,1 C
16.04.2012 17:56 9,0 C 48 % 1017,0 hPa 0,0 l/m 28,8 km/h (4 Bft) NW 315 -1,4 C 5,4 C
16.04.2012 18:01 8,6 C 51 % 1016,9 hPa 0,0 l/m 7,9 km/h (2 Bft) N 360 -1,0 C 7,4 C
16.04.2012 18:06 8,4 C 53 % 1017,1 hPa 0,0 l/m 6,5 km/h (2 Bft) NW 315 -0,6 C 7,5 C
16.04.2012 18:11 8,3 C 53 % 1017,1 hPa 0,0 l/m 18,4 km/h (3 Bft) NW 315 -0,7 C 5,4 C
16.04.2012 18:16 8,4 C 54 % 1017,1 hPa 0,0 l/m 4,7 km/h (1 Bft) NW 315 -0,4 C 8,0 C
16.04.2012 18:21 8,5 C 54 % 1017,1 hPa 0,0 l/m 5,8 km/h (2 Bft) W-NW 292 -0,3 C 7,8 C
16.04.2012 18:26 8,6 C 53 % 1017,1 hPa 0,0 l/m 11,2 km/h (2 Bft) O 90 -0,4 C 6,7 C
16.04.2012 18:31 8,7 C 51 % 1017,2 hPa 0,0 l/m 5,0 km/h (1 Bft) NW 315 -0,9 C 8,3 C
16.04.2012 18:36 8,9 C 49 % 1017,0 hPa 0,0 l/m 5,0 km/h (1 Bft) N-NO 22 -1,2 C 8,5 C
16.04.2012 18:41 9,1 C 47 % 1017,1 hPa 0,0 l/m 17,3 km/h (3 Bft) O-NO 67 -1,6 C 6,5 C
16.04.2012 18:46 9,1 C 48 % 1017,3 hPa 0,0 l/m 9,7 km/h (2 Bft) O 90 -1,3 C 7,6 C
16.04.2012 18:51 8,9 C 49 % 1017,4 hPa 0,0 l/m 8,6 km/h (2 Bft) W-NW 292 -1,2 C 7,6 C
16.04.2012 18:56 8,4 C 51 % 1017,3 hPa 0,0 l/m 14,4 km/h (3 Bft) W-NW 292 -1,1 C 6,0 C
16.04.2012 19:01 8,2 C 52 % 1017,2 hPa 0,0 l/m 10,8 km/h (2 Bft) W-NW 292 -1,1 C 6,3 C
16.04.2012 19:06 8,1 C 54 % 1017,3 hPa 0,0 l/m 11,2 km/h (2 Bft) N 360 -0,6 C 6,1 C
16.04.2012 19:11 7,8 C 55 % 1017,4 hPa 0,0 l/m 4,7 km/h (1 Bft) W-NW 292 -0,7 C 7,4 C
16.04.2012 19:16 7,7 C 55 % 1017,4 hPa 0,0 l/m 14,8 km/h (3 Bft) N-NW 337 -0,8 C 5,1 C
16.04.2012 19:21 7,6 C 56 % 1017,5 hPa 0,0 l/m 5,8 km/h (2 Bft) W 270 -0,6 C 6,8 C
16.04.2012 19:26 7,6 C 56 % 1017,5 hPa 0,0 l/m 4,3 km/h (1 Bft) NW 315 -0,6 C 7,6 C
16.04.2012 19:31 7,8 C 56 % 1017,5 hPa 0,0 l/m 4,0 km/h (1 Bft) N-NW 337 -0,4 C 7,8 C
16.04.2012 19:36 7,8 C 56 % 1017,5 hPa 0,0 l/m 3,6 km/h (1 Bft) N 360 -0,4 C 7,8 C
16.04.2012 19:41 7,8 C 55 % 1017,5 hPa 0,0 l/m 7,2 km/h (2 Bft) NO 45 -0,7 C 6,6 C
16.04.2012 19:46 7,6 C 56 % 1017,6 hPa 0,0 l/m 4,7 km/h (1 Bft) N-NO 22 -0,6 C 7,1 C
16.04.2012 19:51 7,4 C 56 % 1017,4 hPa 0,0 l/m 3,2 km/h (1 Bft) NW 315 -0,8 C 7,4 C
16.04.2012 19:56 7,3 C 56 % 1017,5 hPa 0,0 l/m 0,0 km/h (0 Bft) N-NO 22 -0,9 C 7,3 C
16.04.2012 20:01 7,2 C 56 % 1017,4 hPa 0,0 l/m 0,0 km/h (0 Bft) W 270 -1,0 C 7,2 C
16.04.2012 20:06 7,2 C 57 % 1017,4 hPa 0,0 l/m 3,2 km/h (1 Bft) N-NW 337 -0,7 C 7,2 C
16.04.2012 20:11 7,2 C 57 % 1017,5 hPa 0,0 l/m 1,8 km/h (1 Bft) W-NW 292 -0,7 C 7,2 C
16.04.2012 20:16 7,2 C 58 % 1017,5 hPa 0,0 l/m 3,2 km/h (1 Bft) W-NW 292 -0,5 C 7,2 C
16.04.2012 20:21 7,2 C 58 % 1017,4 hPa 0,0 l/m 2,5 km/h (1 Bft) W-NW 292 -0,5 C 7,2 C
16.04.2012 20:26 7,2 C 58 % 1017,5 hPa 0,0 l/m 2,5 km/h (1 Bft) W-NW 292 -0,5 C 7,2 C
16.04.2012 20:31 7,2 C 58 % 1017,6 hPa 0,0 l/m 4,3 km/h (1 Bft) W-NW 292 -0,5 C 7,2 C
16.04.2012 20:36 7,0 C 58 % 1017,6 hPa 0,0 l/m 5,4 km/h (1 Bft) W 270 -0,7 C 6,2 C
16.04.2012 20:41 6,9 C 59 % 1017,7 hPa 0,0 l/m 2,5 km/h (1 Bft) W 270 -0,5 C 6,9 C
16.04.2012 20:46 6,9 C 59 % 1017,6 hPa 0,0 l/m 4,3 km/h (1 Bft) W 270 -0,5 C 6,9 C
16.04.2012 20:51 6,8 C 59 % 1017,8 hPa 0,0 l/m 4,0 km/h (1 Bft) W 270 -0,6 C 6,8 C
16.04.2012 20:56 6,7 C 59 % 1017,7 hPa 0,0 l/m 2,9 km/h (1 Bft) W-NW 292 -0,7 C 6,7 C
16.04.2012 21:01 6,6 C 59 % 1017,8 hPa 0,0 l/m 3,2 km/h (1 Bft) W-NW 292 -0,8 C 6,6 C
16.04.2012 21:06 6,6 C 60 % 1017,8 hPa 0,0 l/m 1,8 km/h (1 Bft) W 270 -0,6 C 6,6 C
16.04.2012 21:11 6,6 C 60 % 1018,0 hPa 0,0 l/m 1,8 km/h (1 Bft) W 270 -0,6 C 6,6 C
16.04.2012 21:16 6,6 C 60 % 1017,9 hPa 0,0 l/m 1,8 km/h (1 Bft) W-NW 292 -0,6 C 6,6 C
16.04.2012 21:21 6,5 C 60 % 1018,1 hPa 0,0 l/m 4,7 km/h (1 Bft) NO 45 -0,7 C 5,9 C
16.04.2012 21:26 6,2 C 61 % 1018,2 hPa 0,0 l/m 6,1 km/h (2 Bft) NO 45 -0,7 C 5,1 C
16.04.2012 21:31 5,9 C 62 % 1018,1 hPa 0,0 l/m 2,5 km/h (1 Bft) W-NW 292 -0,8 C 5,9 C
16.04.2012 21:36 5,9 C 62 % 1018,1 hPa 0,0 l/m 4,7 km/h (1 Bft) N-NW 337 -0,8 C 5,2 C
16.04.2012 21:41 5,8 C 63 % 1018,1 hPa 0,0 l/m 2,2 km/h (1 Bft) N 360 -0,7 C 5,8 C
16.04.2012 21:46 5,8 C 63 % 1018,1 hPa 0,0 l/m 0,0 km/h (0 Bft) W-NW 292 -0,7 C 5,8 C
16.04.2012 21:51 5,8 C 63 % 1018,0 hPa 0,0 l/m 0,0 km/h (0 Bft) NW 315 -0,7 C 5,8 C
16.04.2012 21:56 5,7 C 63 % 1018,1 hPa 0,0 l/m 1,4 km/h (1 Bft) W-NW 292 -0,8 C 5,7 C
16.04.2012 22:01 5,6 C 64 % 1018,0 hPa 0,0 l/m 0,0 km/h (0 Bft) W-NW 292 -0,7 C 5,6 C
16.04.2012 22:06 5,8 C 64 % 1017,9 hPa 0,0 l/m 1,4 km/h (1 Bft) W-NW 292 -0,5 C 5,8 C
16.04.2012 22:11 5,8 C 64 % 1018,1 hPa 0,0 l/m 0,0 km/h (0 Bft) W-NW 292 -0,5 C 5,8 C
16.04.2012 22:16 5,8 C 64 % 1018,3 hPa 0,0 l/m 1,4 km/h (1 Bft) W-NW 292 -0,5 C 5,8 C
16.04.2012 22:21 5,8 C 64 % 1018,1 hPa 0,0 l/m 1,8 km/h (1 Bft) W 270 -0,5 C 5,8 C
16.04.2012 22:26 5,8 C 64 % 1018,1 hPa 0,0 l/m 0,0 km/h (0 Bft) W 270 -0,5 C 5,8 C
16.04.2012 22:31 5,7 C 64 % 1018,2 hPa 0,0 l/m 2,5 km/h (1 Bft) W 270 -0,6 C 5,7 C
16.04.2012 22:36 5,6 C 64 % 1018,1 hPa 0,0 l/m 3,2 km/h (1 Bft) W-SW 247 -0,7 C 5,6 C
16.04.2012 22:41 5,6 C 65 % 1018,2 hPa 0,0 l/m 4,0 km/h (1 Bft) W-SW 247 -0,4 C 5,6 C
16.04.2012 22:46 5,5 C 64 % 1018,1 hPa 0,0 l/m 6,5 km/h (2 Bft) W-NW 292 -0,8 C 4,1 C
16.04.2012 22:51 5,3 C 64 % 1018,2 hPa 0,0 l/m 6,8 km/h (2 Bft) W 270 -0,9 C 3,8 C
16.04.2012 22:56 5,2 C 64 % 1018,1 hPa 0,0 l/m 5,8 km/h (2 Bft) W 270 -1,0 C 4,0 C
16.04.2012 23:01 5,1 C 64 % 1018,0 hPa 0,0 l/m 5,0 km/h (1 Bft) W 270 -1,1 C 4,2 C
16.04.2012 23:06 4,9 C 64 % 1018,0 hPa 0,0 l/m 4,0 km/h (1 Bft) W-NW 292 -1,3 C 4,9 C
16.04.2012 23:11 4,8 C 64 % 1017,9 hPa 0,0 l/m 4,7 km/h (1 Bft) W 270 -1,4 C 4,0 C
16.04.2012 23:16 4,8 C 64 % 1018,1 hPa 0,0 l/m 6,1 km/h (2 Bft) W 270 -1,4 C 3,5 C
16.04.2012 23:21 4,6 C 64 % 1018,1 hPa 0,0 l/m 5,0 km/h (1 Bft) W-NW 292 -1,6 C 3,6 C
16.04.2012 23:26 4,4 C 64 % 1018,1 hPa 0,0 l/m 7,6 km/h (2 Bft) W-NW 292 -1,8 C 2,5 C
16.04.2012 23:31 4,4 C 64 % 1018,1 hPa 0,0 l/m 9,4 km/h (2 Bft) W-NW 292 -1,8 C 2,1 C
16.04.2012 23:36 4,3 C 64 % 1017,9 hPa 0,0 l/m 11,5 km/h (2 Bft) W-NW 292 -1,9 C 1,5 C
16.04.2012 23:41 4,2 C 65 % 1017,9 hPa 0,0 l/m 6,8 km/h (2 Bft) W-NW 292 -1,8 C 2,5 C
16.04.2012 23:46 4,2 C 65 % 1017,9 hPa 0,0 l/m 6,1 km/h (2 Bft) W-NW 292 -1,8 C 2,8 C
16.04.2012 23:51 4,1 C 66 % 1017,9 hPa 0,0 l/m 3,6 km/h (1 Bft) W-NW 292 -1,7 C 4,1 C
16.04.2012 23:56 4,1 C 66 % 1018,1 hPa 0,0 l/m 4,0 km/h (1 Bft) W 270 -1,7 C 4,1 C
_ Min-Zeit 04:06 16:36 00:01 - 19:56 - - 15:56 05:51
Minimum _ 4,1 C 34 % 1013,8 hPa - 0,0 km/h (0 Bft) - - -4,3 C 0,6 C
_ Max-Zeit 17:11 04:56 22:16 00:01 17:56 - - 05:26 17:11
Maximum _ 12,2 C 83 % 1018,3 hPa 0,0 l/m 28,8 km/h
NW (4 Bft)
- - 1,8 C 12,2 C
Durchschnitt _ 7,0 C 61 % 1016,3 hPa #0,0 l/m 8,2 km/h (2 Bft) NO - -0,4 C 5,9 C
(c) by David Heller